sensor_id;sensor_type;location;lat;lon;timestamp;P1;durP1;ratioP1;P2;durP2;ratioP2
45618;SDS011;31343;47.520;19.144;2022-10-22T00:01:49;10.45;;;6.13;;
45618;SDS011;31343;47.520;19.144;2022-10-22T00:04:15;8.70;;;5.25;;
45618;SDS011;31343;47.520;19.144;2022-10-22T00:06:40;10.57;;;6.20;;
45618;SDS011;31343;47.520;19.144;2022-10-22T00:09:10;8.23;;;5.72;;
45618;SDS011;31343;47.520;19.144;2022-10-22T00:11:36;9.30;;;6.20;;
45618;SDS011;31343;47.520;19.144;2022-10-22T00:14:02;7.82;;;5.00;;
45618;SDS011;31343;47.520;19.144;2022-10-22T00:16:29;7.90;;;5.38;;
45618;SDS011;31343;47.520;19.144;2022-10-22T00:18:54;9.73;;;5.55;;
45618;SDS011;31343;47.520;19.144;2022-10-22T00:21:20;10.40;;;5.95;;
45618;SDS011;31343;47.520;19.144;2022-10-22T00:23:46;10.35;;;5.95;;
45618;SDS011;31343;47.520;19.144;2022-10-22T00:26:12;8.05;;;5.50;;
45618;SDS011;31343;47.520;19.144;2022-10-22T00:28:37;11.32;;;5.35;;
45618;SDS011;31343;47.520;19.144;2022-10-22T00:31:03;10.65;;;6.00;;
45618;SDS011;31343;47.520;19.144;2022-10-22T00:33:30;8.80;;;5.10;;
45618;SDS011;31343;47.520;19.144;2022-10-22T00:35:56;9.50;;;5.85;;
45618;SDS011;31343;47.520;19.144;2022-10-22T00:38:22;10.88;;;5.40;;
45618;SDS011;31343;47.520;19.144;2022-10-22T00:40:48;12.70;;;6.20;;
45618;SDS011;31343;47.520;19.144;2022-10-22T00:43:15;8.18;;;5.38;;
45618;SDS011;31343;47.520;19.144;2022-10-22T00:45:42;9.30;;;5.43;;
45618;SDS011;31343;47.520;19.144;2022-10-22T00:48:09;9.02;;;6.10;;
45618;SDS011;31343;47.520;19.144;2022-10-22T00:53:28;8.60;;;5.35;;
45618;SDS011;31343;47.520;19.144;2022-10-22T00:56:18;8.32;;;5.22;;
45618;SDS011;31343;47.520;19.144;2022-10-22T00:59:05;12.25;;;6.60;;
45618;SDS011;31343;47.520;19.144;2022-10-22T01:01:31;9.75;;;6.95;;
45618;SDS011;31343;47.520;19.144;2022-10-22T01:03:57;8.88;;;4.50;;
45618;SDS011;31343;47.520;19.144;2022-10-22T01:06:28;11.32;;;6.53;;
45618;SDS011;31343;47.520;19.144;2022-10-22T01:22:39;7.97;;;5.53;;
45618;SDS011;31343;47.520;19.144;2022-10-22T01:25:30;10.18;;;5.88;;
45618;SDS011;31343;47.520;19.144;2022-10-22T01:30:52;10.30;;;5.93;;
45618;SDS011;31343;47.520;19.144;2022-10-22T01:33:20;8.73;;;5.38;;
45618;SDS011;31343;47.520;19.144;2022-10-22T01:35:50;9.45;;;6.50;;
45618;SDS011;31343;47.520;19.144;2022-10-22T01:38:17;9.32;;;5.22;;
45618;SDS011;31343;47.520;19.144;2022-10-22T01:40:47;9.05;;;5.57;;
45618;SDS011;31343;47.520;19.144;2022-10-22T01:43:15;9.18;;;5.78;;
45618;SDS011;31343;47.520;19.144;2022-10-22T01:45:54;8.32;;;5.13;;
45618;SDS011;31343;47.520;19.144;2022-10-22T01:48:33;9.07;;;5.25;;
45618;SDS011;31343;47.520;19.144;2022-10-22T01:51:32;7.57;;;5.72;;
45618;SDS011;31343;47.520;19.144;2022-10-22T01:57:30;10.15;;;5.78;;
45618;SDS011;31343;47.520;19.144;2022-10-22T02:00:11;9.93;;;5.53;;
45618;SDS011;31343;47.520;19.144;2022-10-22T02:05:06;8.25;;;5.55;;
45618;SDS011;31343;47.520;19.144;2022-10-22T02:07:45;8.38;;;5.38;;
45618;SDS011;31343;47.520;19.144;2022-10-22T02:10:32;8.60;;;4.97;;
45618;SDS011;31343;47.520;19.144;2022-10-22T02:13:01;8.93;;;4.95;;
45618;SDS011;31343;47.520;19.144;2022-10-22T02:15:28;8.73;;;5.57;;
45618;SDS011;31343;47.520;19.144;2022-10-22T02:17:57;8.23;;;5.38;;
45618;SDS011;31343;47.520;19.144;2022-10-22T02:20:26;7.10;;;5.10;;
45618;SDS011;31343;47.520;19.144;2022-10-22T02:22:54;7.15;;;4.43;;
45618;SDS011;31343;47.520;19.144;2022-10-22T02:25:21;10.00;;;6.88;;
45618;SDS011;31343;47.520;19.144;2022-10-22T02:28:01;11.00;;;6.13;;
45618;SDS011;31343;47.520;19.144;2022-10-22T02:30:37;11.30;;;5.57;;
45618;SDS011;31343;47.520;19.144;2022-10-22T02:35:36;8.27;;;5.10;;
45618;SDS011;31343;47.520;19.144;2022-10-22T02:38:05;10.27;;;5.28;;
45618;SDS011;31343;47.520;19.144;2022-10-22T02:40:32;9.18;;;5.43;;
45618;SDS011;31343;47.520;19.144;2022-10-22T02:42:58;6.47;;;5.05;;
45618;SDS011;31343;47.520;19.144;2022-10-22T02:45:23;9.43;;;5.28;;
45618;SDS011;31343;47.520;19.144;2022-10-22T02:47:50;7.53;;;5.18;;
45618;SDS011;31343;47.520;19.144;2022-10-22T02:50:16;8.38;;;5.53;;
45618;SDS011;31343;47.520;19.144;2022-10-22T02:52:42;6.40;;;4.78;;
45618;SDS011;31343;47.520;19.144;2022-10-22T02:55:08;8.98;;;5.90;;
45618;SDS011;31343;47.520;19.144;2022-10-22T02:57:33;9.32;;;6.03;;
45618;SDS011;31343;47.520;19.144;2022-10-22T02:59:59;7.15;;;5.10;;
45618;SDS011;31343;47.520;19.144;2022-10-22T03:02:25;7.43;;;5.07;;
45618;SDS011;31343;47.520;19.144;2022-10-22T03:04:50;9.00;;;5.40;;
45618;SDS011;31343;47.520;19.144;2022-10-22T03:07:16;8.68;;;5.97;;
45618;SDS011;31343;47.520;19.144;2022-10-22T03:09:42;9.45;;;6.13;;
45618;SDS011;31343;47.520;19.144;2022-10-22T03:12:07;8.85;;;5.55;;
45618;SDS011;31343;47.520;19.144;2022-10-22T03:14:34;10.40;;;5.60;;
45618;SDS011;31343;47.520;19.144;2022-10-22T03:16:59;8.80;;;6.03;;
45618;SDS011;31343;47.520;19.144;2022-10-22T03:19:25;10.25;;;5.75;;
45618;SDS011;31343;47.520;19.144;2022-10-22T03:22:12;9.13;;;5.95;;
45618;SDS011;31343;47.520;19.144;2022-10-22T03:24:46;11.38;;;6.82;;
45618;SDS011;31343;47.520;19.144;2022-10-22T03:27:16;10.18;;;5.50;;
45618;SDS011;31343;47.520;19.144;2022-10-22T03:29:44;10.38;;;6.13;;
45618;SDS011;31343;47.520;19.144;2022-10-22T03:32:11;9.43;;;6.40;;
45618;SDS011;31343;47.520;19.144;2022-10-22T03:34:37;7.00;;;4.78;;
45618;SDS011;31343;47.520;19.144;2022-10-22T03:37:03;8.57;;;4.82;;
45618;SDS011;31343;47.520;19.144;2022-10-22T03:39:29;9.95;;;6.40;;
45618;SDS011;31343;47.520;19.144;2022-10-22T03:41:57;11.30;;;6.75;;
45618;SDS011;31343;47.520;19.144;2022-10-22T03:44:23;8.70;;;5.45;;
45618;SDS011;31343;47.520;19.144;2022-10-22T03:46:49;8.57;;;5.13;;
45618;SDS011;31343;47.520;19.144;2022-10-22T03:49:15;8.02;;;5.72;;
45618;SDS011;31343;47.520;19.144;2022-10-22T03:51:41;10.23;;;5.68;;
45618;SDS011;31343;47.520;19.144;2022-10-22T03:54:06;9.80;;;5.35;;
45618;SDS011;31343;47.520;19.144;2022-10-22T03:56:32;10.07;;;6.28;;
45618;SDS011;31343;47.520;19.144;2022-10-22T03:58:58;9.93;;;6.20;;
45618;SDS011;31343;47.520;19.144;2022-10-22T04:01:25;10.45;;;5.93;;
45618;SDS011;31343;47.520;19.144;2022-10-22T04:03:52;10.88;;;6.75;;
45618;SDS011;31343;47.520;19.144;2022-10-22T04:06:18;10.27;;;6.43;;
45618;SDS011;31343;47.520;19.144;2022-10-22T04:08:44;10.77;;;6.28;;
45618;SDS011;31343;47.520;19.144;2022-10-22T04:11:10;10.15;;;5.60;;
45618;SDS011;31343;47.520;19.144;2022-10-22T04:13:37;14.13;;;5.95;;
45618;SDS011;31343;47.520;19.144;2022-10-22T04:16:07;10.77;;;5.68;;
45618;SDS011;31343;47.520;19.144;2022-10-22T04:18:33;8.68;;;5.35;;
45618;SDS011;31343;47.520;19.144;2022-10-22T04:20:59;10.95;;;5.60;;
45618;SDS011;31343;47.520;19.144;2022-10-22T04:23:25;9.65;;;6.45;;
45618;SDS011;31343;47.520;19.144;2022-10-22T04:25:56;10.73;;;6.10;;
45618;SDS011;31343;47.520;19.144;2022-10-22T04:28:26;13.05;;;6.32;;
45618;SDS011;31343;47.520;19.144;2022-10-22T04:30:52;9.68;;;6.57;;
45618;SDS011;31343;47.520;19.144;2022-10-22T04:33:18;9.38;;;6.22;;
45618;SDS011;31343;47.520;19.144;2022-10-22T04:35:45;10.27;;;6.28;;
45618;SDS011;31343;47.520;19.144;2022-10-22T04:38:11;9.90;;;6.70;;
45618;SDS011;31343;47.520;19.144;2022-10-22T04:40:37;10.10;;;5.85;;
45618;SDS011;31343;47.520;19.144;2022-10-22T04:43:03;8.30;;;6.00;;
45618;SDS011;31343;47.520;19.144;2022-10-22T04:45:28;9.48;;;6.05;;
45618;SDS011;31343;47.520;19.144;2022-10-22T04:47:54;8.98;;;6.07;;
45618;SDS011;31343;47.520;19.144;2022-10-22T04:50:20;10.82;;;7.15;;
45618;SDS011;31343;47.520;19.144;2022-10-22T04:52:46;8.15;;;5.05;;
45618;SDS011;31343;47.520;19.144;2022-10-22T04:55:12;11.02;;;6.50;;
45618;SDS011;31343;47.520;19.144;2022-10-22T04:57:37;11.02;;;7.25;;
45618;SDS011;31343;47.520;19.144;2022-10-22T05:00:04;8.60;;;5.68;;
45618;SDS011;31343;47.520;19.144;2022-10-22T05:02:30;9.30;;;5.85;;
45618;SDS011;31343;47.520;19.144;2022-10-22T05:04:56;9.27;;;6.43;;
45618;SDS011;31343;47.520;19.144;2022-10-22T05:07:21;10.30;;;5.82;;
45618;SDS011;31343;47.520;19.144;2022-10-22T05:09:48;9.50;;;6.10;;
45618;SDS011;31343;47.520;19.144;2022-10-22T05:12:15;9.57;;;6.35;;
45618;SDS011;31343;47.520;19.144;2022-10-22T05:14:40;10.20;;;6.07;;
45618;SDS011;31343;47.520;19.144;2022-10-22T05:17:07;10.25;;;5.75;;
45618;SDS011;31343;47.520;19.144;2022-10-22T05:19:33;10.82;;;6.18;;
45618;SDS011;31343;47.520;19.144;2022-10-22T05:21:59;11.95;;;6.85;;
45618;SDS011;31343;47.520;19.144;2022-10-22T05:24:26;14.70;;;7.30;;
45618;SDS011;31343;47.520;19.144;2022-10-22T05:26:53;10.25;;;7.20;;
45618;SDS011;31343;47.520;19.144;2022-10-22T05:29:21;13.25;;;6.72;;
45618;SDS011;31343;47.520;19.144;2022-10-22T05:31:48;13.25;;;6.72;;
45618;SDS011;31343;47.520;19.144;2022-10-22T05:34:14;9.68;;;6.55;;
45618;SDS011;31343;47.520;19.144;2022-10-22T05:36:40;9.13;;;7.18;;
45618;SDS011;31343;47.520;19.144;2022-10-22T05:39:05;11.80;;;7.07;;
45618;SDS011;31343;47.520;19.144;2022-10-22T05:41:33;10.85;;;6.90;;
45618;SDS011;31343;47.520;19.144;2022-10-22T05:43:59;11.80;;;7.25;;
45618;SDS011;31343;47.520;19.144;2022-10-22T05:46:27;17.88;;;8.65;;
45618;SDS011;31343;47.520;19.144;2022-10-22T05:48:58;12.25;;;7.25;;
45618;SDS011;31343;47.520;19.144;2022-10-22T05:51:26;12.40;;;7.70;;
45618;SDS011;31343;47.520;19.144;2022-10-22T05:53:54;12.07;;;8.15;;
45618;SDS011;31343;47.520;19.144;2022-10-22T05:56:23;10.65;;;7.13;;
45618;SDS011;31343;47.520;19.144;2022-10-22T05:58:50;12.90;;;7.03;;
45618;SDS011;31343;47.520;19.144;2022-10-22T06:01:17;12.00;;;8.48;;
45618;SDS011;31343;47.520;19.144;2022-10-22T06:03:45;15.35;;;8.82;;
45618;SDS011;31343;47.520;19.144;2022-10-22T06:06:14;13.85;;;8.55;;
45618;SDS011;31343;47.520;19.144;2022-10-22T06:08:47;12.13;;;7.90;;
45618;SDS011;31343;47.520;19.144;2022-10-22T06:11:15;14.82;;;7.80;;
45618;SDS011;31343;47.520;19.144;2022-10-22T06:13:43;16.45;;;8.18;;
45618;SDS011;31343;47.520;19.144;2022-10-22T06:16:09;14.32;;;8.50;;
45618;SDS011;31343;47.520;19.144;2022-10-22T06:18:35;13.35;;;9.10;;
45618;SDS011;31343;47.520;19.144;2022-10-22T06:21:04;16.27;;;9.77;;
45618;SDS011;31343;47.520;19.144;2022-10-22T06:23:35;12.57;;;8.18;;
45618;SDS011;31343;47.520;19.144;2022-10-22T06:26:02;14.93;;;8.68;;
45618;SDS011;31343;47.520;19.144;2022-10-22T06:28:28;10.85;;;8.05;;
45618;SDS011;31343;47.520;19.144;2022-10-22T06:30:55;13.07;;;8.20;;
45618;SDS011;31343;47.520;19.144;2022-10-22T06:33:22;12.80;;;7.72;;
45618;SDS011;31343;47.520;19.144;2022-10-22T06:35:48;17.40;;;10.38;;
45618;SDS011;31343;47.520;19.144;2022-10-22T06:38:14;15.45;;;11.43;;
45618;SDS011;31343;47.520;19.144;2022-10-22T06:40:39;13.27;;;8.93;;
45618;SDS011;31343;47.520;19.144;2022-10-22T06:43:08;15.48;;;8.50;;
45618;SDS011;31343;47.520;19.144;2022-10-22T06:45:34;10.77;;;7.50;;
45618;SDS011;31343;47.520;19.144;2022-10-22T06:47:59;12.38;;;7.25;;
45618;SDS011;31343;47.520;19.144;2022-10-22T06:50:25;11.50;;;7.32;;
45618;SDS011;31343;47.520;19.144;2022-10-22T06:52:51;10.45;;;7.60;;
45618;SDS011;31343;47.520;19.144;2022-10-22T06:55:16;11.00;;;7.45;;
45618;SDS011;31343;47.520;19.144;2022-10-22T06:57:42;12.45;;;6.75;;
45618;SDS011;31343;47.520;19.144;2022-10-22T07:00:08;10.07;;;6.25;;
45618;SDS011;31343;47.520;19.144;2022-10-22T07:02:34;10.88;;;7.55;;
45618;SDS011;31343;47.520;19.144;2022-10-22T07:05:00;10.07;;;6.22;;
45618;SDS011;31343;47.520;19.144;2022-10-22T07:07:25;10.20;;;6.22;;
45618;SDS011;31343;47.520;19.144;2022-10-22T07:09:51;10.23;;;6.10;;
45618;SDS011;31343;47.520;19.144;2022-10-22T07:12:17;10.07;;;6.47;;
45618;SDS011;31343;47.520;19.144;2022-10-22T07:14:42;9.30;;;6.28;;
45618;SDS011;31343;47.520;19.144;2022-10-22T07:17:08;9.35;;;6.60;;
45618;SDS011;31343;47.520;19.144;2022-10-22T07:19:34;10.07;;;6.07;;
45618;SDS011;31343;47.520;19.144;2022-10-22T07:22:00;13.55;;;6.93;;
45618;SDS011;31343;47.520;19.144;2022-10-22T07:24:26;10.55;;;7.03;;
45618;SDS011;31343;47.520;19.144;2022-10-22T07:26:51;11.38;;;6.70;;
45618;SDS011;31343;47.520;19.144;2022-10-22T07:29:17;9.88;;;6.40;;
45618;SDS011;31343;47.520;19.144;2022-10-22T07:31:43;9.25;;;5.25;;
45618;SDS011;31343;47.520;19.144;2022-10-22T07:34:09;11.13;;;6.00;;
45618;SDS011;31343;47.520;19.144;2022-10-22T07:36:35;9.95;;;5.90;;
45618;SDS011;31343;47.520;19.144;2022-10-22T07:39:00;9.98;;;6.82;;
45618;SDS011;31343;47.520;19.144;2022-10-22T07:41:28;11.00;;;5.85;;
45618;SDS011;31343;47.520;19.144;2022-10-22T07:43:54;10.30;;;6.47;;
45618;SDS011;31343;47.520;19.144;2022-10-22T07:46:21;10.10;;;5.72;;
45618;SDS011;31343;47.520;19.144;2022-10-22T07:48:47;9.95;;;6.30;;
45618;SDS011;31343;47.520;19.144;2022-10-22T07:51:12;10.10;;;6.70;;
45618;SDS011;31343;47.520;19.144;2022-10-22T07:53:39;10.45;;;6.70;;
45618;SDS011;31343;47.520;19.144;2022-10-22T07:56:05;9.32;;;5.78;;
45618;SDS011;31343;47.520;19.144;2022-10-22T07:58:32;8.73;;;5.55;;
45618;SDS011;31343;47.520;19.144;2022-10-22T08:00:58;10.60;;;6.90;;
45618;SDS011;31343;47.520;19.144;2022-10-22T08:03:26;10.98;;;6.18;;
45618;SDS011;31343;47.520;19.144;2022-10-22T08:05:53;10.18;;;6.25;;
45618;SDS011;31343;47.520;19.144;2022-10-22T08:08:19;9.45;;;5.95;;
45618;SDS011;31343;47.520;19.144;2022-10-22T08:10:47;10.77;;;6.00;;
45618;SDS011;31343;47.520;19.144;2022-10-22T08:13:15;10.70;;;6.18;;
45618;SDS011;31343;47.520;19.144;2022-10-22T08:15:41;10.48;;;6.75;;
45618;SDS011;31343;47.520;19.144;2022-10-22T08:18:07;10.48;;;6.68;;
45618;SDS011;31343;47.520;19.144;2022-10-22T08:20:34;12.10;;;7.43;;
45618;SDS011;31343;47.520;19.144;2022-10-22T08:23:01;10.15;;;6.45;;
45618;SDS011;31343;47.520;19.144;2022-10-22T08:25:27;14.45;;;8.77;;
45618;SDS011;31343;47.520;19.144;2022-10-22T08:27:53;10.27;;;6.53;;
45618;SDS011;31343;47.520;19.144;2022-10-22T08:30:18;11.60;;;7.78;;
45618;SDS011;31343;47.520;19.144;2022-10-22T08:32:44;10.55;;;7.82;;
45618;SDS011;31343;47.520;19.144;2022-10-22T08:35:10;12.82;;;7.72;;
45618;SDS011;31343;47.520;19.144;2022-10-22T08:37:35;12.00;;;7.32;;
45618;SDS011;31343;47.520;19.144;2022-10-22T08:40:03;11.90;;;7.95;;
45618;SDS011;31343;47.520;19.144;2022-10-22T08:42:35;11.23;;;7.65;;
45618;SDS011;31343;47.520;19.144;2022-10-22T08:48:13;11.50;;;7.40;;
45618;SDS011;31343;47.520;19.144;2022-10-22T08:50:47;9.70;;;7.40;;
45618;SDS011;31343;47.520;19.144;2022-10-22T08:53:17;12.52;;;7.03;;
45618;SDS011;31343;47.520;19.144;2022-10-22T08:55:47;12.00;;;7.57;;
45618;SDS011;31343;47.520;19.144;2022-10-22T08:58:21;12.38;;;6.78;;
45618;SDS011;31343;47.520;19.144;2022-10-22T09:00:59;11.30;;;7.30;;
45618;SDS011;31343;47.520;19.144;2022-10-22T09:06:18;13.73;;;7.72;;
45618;SDS011;31343;47.520;19.144;2022-10-22T09:08:53;11.75;;;7.35;;
45618;SDS011;31343;47.520;19.144;2022-10-22T09:13:59;11.73;;;7.15;;
45618;SDS011;31343;47.520;19.144;2022-10-22T09:16:36;12.00;;;8.10;;
45618;SDS011;31343;47.520;19.144;2022-10-22T09:19:34;10.80;;;6.65;;
45618;SDS011;31343;47.520;19.144;2022-10-22T09:22:24;10.45;;;7.00;;
45618;SDS011;31343;47.520;19.144;2022-10-22T09:25:22;10.73;;;7.05;;
45618;SDS011;31343;47.520;19.144;2022-10-22T09:27:50;11.52;;;7.43;;
45618;SDS011;31343;47.520;19.144;2022-10-22T09:30:22;9.85;;;7.13;;
45618;SDS011;31343;47.520;19.144;2022-10-22T09:32:58;12.75;;;7.18;;
45618;SDS011;31343;47.520;19.144;2022-10-22T09:35:27;10.20;;;6.78;;
45618;SDS011;31343;47.520;19.144;2022-10-22T09:37:57;13.13;;;7.28;;
45618;SDS011;31343;47.520;19.144;2022-10-22T09:40:40;10.70;;;7.95;;
45618;SDS011;31343;47.520;19.144;2022-10-22T09:43:12;11.70;;;7.07;;
45618;SDS011;31343;47.520;19.144;2022-10-22T09:45:38;12.95;;;7.88;;
45618;SDS011;31343;47.520;19.144;2022-10-22T09:48:17;9.98;;;6.68;;
45618;SDS011;31343;47.520;19.144;2022-10-22T09:50:54;12.55;;;7.40;;
45618;SDS011;31343;47.520;19.144;2022-10-22T09:53:30;13.20;;;8.13;;
45618;SDS011;31343;47.520;19.144;2022-10-22T09:56:06;11.02;;;7.07;;
45618;SDS011;31343;47.520;19.144;2022-10-22T09:58:46;10.90;;;7.23;;
45618;SDS011;31343;47.520;19.144;2022-10-22T10:01:16;11.45;;;6.93;;
45618;SDS011;31343;47.520;19.144;2022-10-22T10:03:44;11.43;;;7.30;;
45618;SDS011;31343;47.520;19.144;2022-10-22T10:06:16;11.13;;;8.27;;
45618;SDS011;31343;47.520;19.144;2022-10-22T10:08:44;11.77;;;7.85;;
45618;SDS011;31343;47.520;19.144;2022-10-22T10:11:27;15.55;;;8.27;;
45618;SDS011;31343;47.520;19.144;2022-10-22T10:25:13;11.20;;;7.95;;
45618;SDS011;31343;47.520;19.144;2022-10-22T10:27:43;15.00;;;9.85;;
45618;SDS011;31343;47.520;19.144;2022-10-22T10:30:20;12.10;;;8.35;;
45618;SDS011;31343;47.520;19.144;2022-10-22T10:35:56;13.43;;;8.40;;
45618;SDS011;31343;47.520;19.144;2022-10-22T10:49:49;12.55;;;7.70;;
45618;SDS011;31343;47.520;19.144;2022-10-22T10:52:35;12.80;;;7.75;;
45618;SDS011;31343;47.520;19.144;2022-10-22T10:55:12;13.27;;;8.18;;
45618;SDS011;31343;47.520;19.144;2022-10-22T11:00:56;11.60;;;7.30;;
45618;SDS011;31343;47.520;19.144;2022-10-22T11:06:37;17.20;;;8.60;;
45618;SDS011;31343;47.520;19.144;2022-10-22T11:09:13;10.45;;;7.65;;
45618;SDS011;31343;47.520;19.144;2022-10-22T11:11:56;12.30;;;8.18;;
45618;SDS011;31343;47.520;19.144;2022-10-22T11:14:30;11.95;;;7.07;;
45618;SDS011;31343;47.520;19.144;2022-10-22T11:19:35;9.88;;;6.95;;
45618;SDS011;31343;47.520;19.144;2022-10-22T11:22:24;11.85;;;7.53;;
45618;SDS011;31343;47.520;19.144;2022-10-22T11:27:48;13.43;;;7.60;;
45618;SDS011;31343;47.520;19.144;2022-10-22T11:30:19;14.90;;;8.88;;
45618;SDS011;31343;47.520;19.144;2022-10-22T11:32:54;12.82;;;8.50;;
45618;SDS011;31343;47.520;19.144;2022-10-22T11:35:26;13.57;;;8.82;;
45618;SDS011;31343;47.520;19.144;2022-10-22T11:37:55;13.45;;;8.98;;
45618;SDS011;31343;47.520;19.144;2022-10-22T11:43:02;11.25;;;7.18;;
45618;SDS011;31343;47.520;19.144;2022-10-22T11:45:40;13.15;;;7.50;;
45618;SDS011;31343;47.520;19.144;2022-10-22T11:50:54;12.07;;;7.97;;
45618;SDS011;31343;47.520;19.144;2022-10-22T12:03:37;14.60;;;8.85;;
45618;SDS011;31343;47.520;19.144;2022-10-22T12:17:04;13.07;;;7.93;;
45618;SDS011;31343;47.520;19.144;2022-10-22T12:19:36;12.02;;;7.95;;
45618;SDS011;31343;47.520;19.144;2022-10-22T12:24:55;11.63;;;8.05;;
45618;SDS011;31343;47.520;19.144;2022-10-22T12:27:34;13.40;;;10.07;;
45618;SDS011;31343;47.520;19.144;2022-10-22T12:30:19;14.48;;;8.52;;
45618;SDS011;31343;47.520;19.144;2022-10-22T12:33:15;12.95;;;8.35;;
45618;SDS011;31343;47.520;19.144;2022-10-22T12:35:47;18.75;;;10.05;;
45618;SDS011;31343;47.520;19.144;2022-10-22T12:38:25;14.27;;;8.50;;
45618;SDS011;31343;47.520;19.144;2022-10-22T12:40:53;11.88;;;8.48;;
45618;SDS011;31343;47.520;19.144;2022-10-22T12:43:27;13.18;;;7.95;;
45618;SDS011;31343;47.520;19.144;2022-10-22T12:45:55;15.38;;;8.73;;
45618;SDS011;31343;47.520;19.144;2022-10-22T12:48:23;13.80;;;8.85;;
45618;SDS011;31343;47.520;19.144;2022-10-22T12:51:00;13.30;;;8.32;;
45618;SDS011;31343;47.520;19.144;2022-10-22T12:53:47;10.68;;;7.32;;
45618;SDS011;31343;47.520;19.144;2022-10-22T12:56:22;12.38;;;8.63;;
45618;SDS011;31343;47.520;19.144;2022-10-22T12:58:54;12.85;;;8.40;;
45618;SDS011;31343;47.520;19.144;2022-10-22T13:01:26;11.65;;;8.25;;
45618;SDS011;31343;47.520;19.144;2022-10-22T13:07:04;13.10;;;8.10;;
45618;SDS011;31343;47.520;19.144;2022-10-22T13:09:40;11.20;;;8.05;;
45618;SDS011;31343;47.520;19.144;2022-10-22T13:12:09;10.75;;;7.47;;
45618;SDS011;31343;47.520;19.144;2022-10-22T13:14:41;12.57;;;8.02;;
45618;SDS011;31343;47.520;19.144;2022-10-22T13:17:10;14.07;;;9.30;;
45618;SDS011;31343;47.520;19.144;2022-10-22T13:22:35;13.85;;;9.27;;
45618;SDS011;31343;47.520;19.144;2022-10-22T13:25:25;14.27;;;9.48;;
45618;SDS011;31343;47.520;19.144;2022-10-22T13:30:19;14.63;;;9.95;;
45618;SDS011;31343;47.520;19.144;2022-10-22T13:32:49;16.17;;;9.38;;
45618;SDS011;31343;47.520;19.144;2022-10-22T13:35:37;14.85;;;8.48;;
45618;SDS011;31343;47.520;19.144;2022-10-22T13:38:09;11.82;;;7.35;;
45618;SDS011;31343;47.520;19.144;2022-10-22T13:40:41;12.73;;;7.70;;
45618;SDS011;31343;47.520;19.144;2022-10-22T13:43:06;15.05;;;9.30;;
45618;SDS011;31343;47.520;19.144;2022-10-22T13:45:32;13.65;;;8.27;;
45618;SDS011;31343;47.520;19.144;2022-10-22T13:47:58;18.30;;;10.25;;
45618;SDS011;31343;47.520;19.144;2022-10-22T13:50:24;15.10;;;10.45;;
45618;SDS011;31343;47.520;19.144;2022-10-22T13:52:51;17.17;;;9.95;;
45618;SDS011;31343;47.520;19.144;2022-10-22T13:55:19;14.15;;;9.95;;
45618;SDS011;31343;47.520;19.144;2022-10-22T13:57:46;13.57;;;8.90;;
45618;SDS011;31343;47.520;19.144;2022-10-22T14:00:16;12.52;;;9.05;;
45618;SDS011;31343;47.520;19.144;2022-10-22T14:02:44;13.82;;;8.90;;
45618;SDS011;31343;47.520;19.144;2022-10-22T14:05:12;16.02;;;10.13;;
45618;SDS011;31343;47.520;19.144;2022-10-22T14:07:38;14.73;;;9.43;;
45618;SDS011;31343;47.520;19.144;2022-10-22T14:12:44;15.50;;;9.68;;
45618;SDS011;31343;47.520;19.144;2022-10-22T14:15:10;16.55;;;10.00;;
45618;SDS011;31343;47.520;19.144;2022-10-22T14:17:38;13.95;;;9.20;;
45618;SDS011;31343;47.520;19.144;2022-10-22T14:20:09;16.48;;;9.27;;
45618;SDS011;31343;47.520;19.144;2022-10-22T14:22:43;16.77;;;10.75;;
45618;SDS011;31343;47.520;19.144;2022-10-22T14:25:14;15.40;;;10.07;;
45618;SDS011;31343;47.520;19.144;2022-10-22T14:27:45;20.02;;;10.02;;
45618;SDS011;31343;47.520;19.144;2022-10-22T14:30:15;13.45;;;9.43;;
45618;SDS011;31343;47.520;19.144;2022-10-22T14:32:43;16.40;;;10.38;;
45618;SDS011;31343;47.520;19.144;2022-10-22T14:35:13;12.85;;;9.45;;
45618;SDS011;31343;47.520;19.144;2022-10-22T14:37:44;18.25;;;11.75;;
45618;SDS011;31343;47.520;19.144;2022-10-22T14:40:11;16.15;;;9.75;;
45618;SDS011;31343;47.520;19.144;2022-10-22T14:42:39;14.90;;;9.57;;
45618;SDS011;31343;47.520;19.144;2022-10-22T14:47:45;16.02;;;9.68;;
45618;SDS011;31343;47.520;19.144;2022-10-22T14:50:12;16.38;;;9.45;;
45618;SDS011;31343;47.520;19.144;2022-10-22T14:52:38;13.93;;;9.85;;
45618;SDS011;31343;47.520;19.144;2022-10-22T14:55:06;15.02;;;10.00;;
45618;SDS011;31343;47.520;19.144;2022-10-22T14:57:32;18.17;;;9.75;;
45618;SDS011;31343;47.520;19.144;2022-10-22T14:59:58;14.07;;;9.73;;
45618;SDS011;31343;47.520;19.144;2022-10-22T15:02:24;14.82;;;10.18;;
45618;SDS011;31343;47.520;19.144;2022-10-22T15:04:50;15.88;;;9.82;;
45618;SDS011;31343;47.520;19.144;2022-10-22T15:07:16;21.90;;;12.07;;
45618;SDS011;31343;47.520;19.144;2022-10-22T15:09:42;21.85;;;13.18;;
45618;SDS011;31343;47.520;19.144;2022-10-22T15:12:07;23.67;;;13.40;;
45618;SDS011;31343;47.520;19.144;2022-10-22T15:14:33;23.30;;;14.10;;
45618;SDS011;31343;47.520;19.144;2022-10-22T15:16:59;23.60;;;13.43;;
45618;SDS011;31343;47.520;19.144;2022-10-22T15:19:24;18.52;;;10.35;;
45618;SDS011;31343;47.520;19.144;2022-10-22T15:21:50;15.30;;;10.13;;
45618;SDS011;31343;47.520;19.144;2022-10-22T15:24:16;17.20;;;9.55;;
45618;SDS011;31343;47.520;19.144;2022-10-22T15:26:42;11.40;;;8.43;;
45618;SDS011;31343;47.520;19.144;2022-10-22T15:29:08;14.57;;;7.70;;
45618;SDS011;31343;47.520;19.144;2022-10-22T15:31:48;13.10;;;7.68;;
45618;SDS011;31343;47.520;19.144;2022-10-22T15:34:23;11.75;;;8.00;;
45618;SDS011;31343;47.520;19.144;2022-10-22T15:36:52;12.15;;;7.68;;
45618;SDS011;31343;47.520;19.144;2022-10-22T15:39:19;12.52;;;7.28;;
45618;SDS011;31343;47.520;19.144;2022-10-22T15:41:47;10.27;;;7.43;;
45618;SDS011;31343;47.520;19.144;2022-10-22T15:44:17;14.32;;;8.00;;
45618;SDS011;31343;47.520;19.144;2022-10-22T15:46:44;12.25;;;7.78;;
45618;SDS011;31343;47.520;19.144;2022-10-22T15:49:10;13.55;;;8.23;;
45618;SDS011;31343;47.520;19.144;2022-10-22T15:51:36;13.13;;;7.95;;
45618;SDS011;31343;47.520;19.144;2022-10-22T15:54:02;10.07;;;6.43;;
45618;SDS011;31343;47.520;19.144;2022-10-22T15:56:28;12.95;;;7.40;;
45618;SDS011;31343;47.520;19.144;2022-10-22T15:58:55;11.70;;;7.82;;
45618;SDS011;31343;47.520;19.144;2022-10-22T16:01:22;12.65;;;7.55;;
45618;SDS011;31343;47.520;19.144;2022-10-22T16:03:49;11.98;;;7.88;;
45618;SDS011;31343;47.520;19.144;2022-10-22T16:06:27;18.55;;;9.57;;
45618;SDS011;31343;47.520;19.144;2022-10-22T16:08:55;11.35;;;8.32;;
45618;SDS011;31343;47.520;19.144;2022-10-22T16:11:22;13.07;;;8.73;;
45618;SDS011;31343;47.520;19.144;2022-10-22T16:13:51;15.48;;;8.40;;
45618;SDS011;31343;47.520;19.144;2022-10-22T16:16:21;13.52;;;8.25;;
45618;SDS011;31343;47.520;19.144;2022-10-22T16:18:51;18.45;;;10.00;;
45618;SDS011;31343;47.520;19.144;2022-10-22T16:21:20;12.32;;;7.97;;
45618;SDS011;31343;47.520;19.144;2022-10-22T16:23:47;17.20;;;8.95;;
45618;SDS011;31343;47.520;19.144;2022-10-22T16:26:13;23.52;;;11.48;;
45618;SDS011;31343;47.520;19.144;2022-10-22T16:28:40;13.73;;;9.02;;
45618;SDS011;31343;47.520;19.144;2022-10-22T16:31:07;16.13;;;9.75;;
45618;SDS011;31343;47.520;19.144;2022-10-22T16:33:38;16.48;;;10.25;;